British Robin — MGSH7 — position and weather

sailwx.info

Track history (hours):
 
Tides and Currents Weather Stations Pressure Air Temp Water Temp Dewpoint Dewpoint Depression Visibility Wind Speed Wind Dir Waves Ship Positions

British Robin

Last reported at 2016-Feb-12 05:28 UTC. Time now 2016-Feb-12 05:44 UTC.
Position N 59°56' E 028°36'.

Length 251.5 m; beam 43.9 m; draft 15 m.

Type: Tanker. MMSI: 232156000.

Date/timePositionNaut miles runAvg speedWind from/ knotsBaromVisibWave heightAir tempDewpointWater temp
2016-Feb-12 05:28N 59°56' E 028°36'0 0.0
2016-Feb-12 04:31N 59°56' E 028°36'0 0.0
2016-Feb-12 03:31N 59°56' E 028°36'0 0.0
2016-Feb-12 02:31N 59°56' E 028°36'0 0.0
2016-Feb-12 01:31N 59°56' E 028°36'0 0.0
2016-Feb-12 00:31N 59°56' E 028°36'0 0.0
2016-Feb-11 23:31N 59°56' E 028°36'0 0.0
2016-Feb-11 22:31N 59°56' E 028°36'0 0.0
2016-Feb-11 21:31N 59°56' E 028°36'0 0.0
2016-Feb-11 20:31N 59°56' E 028°36'0 0.0
2016-Feb-11 19:31N 59°56' E 028°36'0 0.0
2016-Feb-11 18:31N 59°56' E 028°36'0 0.0
2016-Feb-11 17:31N 59°56' E 028°36'0 0.0
2016-Feb-11 16:22N 59°56' E 028°36'0 0.0
2016-Feb-11 15:22N 59°56' E 028°36'0 0.0
2016-Feb-11 14:10N 59°56' E 028°36'0 0.0
2016-Feb-11 13:34N 59°56' E 028°36'0 0.0
2016-Feb-11 12:34N 59°56' E 028°36'0 0.0
2016-Feb-11 11:24N 59°56' E 028°36'0 0.0
2016-Feb-11 10:24N 59°56' E 028°36'0 0.0
2016-Feb-11 09:27N 59°56' E 028°36'0 0.0
2016-Feb-11 08:27N 59°56' E 028°36'0 0.0
2016-Feb-11 07:27N 59°56' E 028°36'0 0.0
2016-Feb-11 06:27N 59°56' E 028°36'0 0.0
2016-Feb-11 05:33N 59°56' E 028°36'1 1.0
2016-Feb-11 04:33N 59°57' E 028°36'5 5.5
2016-Feb-11 03:33N 60°02' E 028°34'1111.0
2016-Feb-11 02:33N 60°07' E 028°14'1211.9
2016-Feb-11 01:33N 60°11' E 027°51'1211.9
2016-Feb-11 00:33N 60°06' E 027°29'1312.6
2016-Feb-10 23:29N 59°59' E 027°06'1111.7
2016-Feb-10 22:33N 59°59' E 026°45'1212.1
2016-Feb-10 21:33N 59°57' E 026°21'5012.4
2016-Feb-10 17:33N 59°46' E 024°44'1313.2
2016-Feb-10 16:33N 59°43' E 024°19'1313.2
2016-Feb-10 15:33N 59°39' E 023°54'1313.0
2016-Feb-10 14:33N 59°34' E 023°30'29811.5
2016-Feb-09 12:33N 55°10' E 019°13'1313.2
2016-Feb-09 11:33N 54°57' E 019°08'1313.1
2016-Feb-09 10:33N 54°44' E 019°04'1212.4
2016-Feb-09 09:33N 54°32' E 019°04'1111.0
2016-Feb-09 08:33N 54°25' E 018°49'3 3.4
2016-Feb-09 07:32N 54°24' E 018°43'0 0.0
2016-Feb-09 06:32N 54°24' E 018°43'0 0.0
2016-Feb-09 05:32N 54°24' E 018°43'0 0.0
2016-Feb-09 04:32N 54°24' E 018°43'0 0.0
2016-Feb-09 03:32N 54°24' E 018°43'0 0.0
2016-Feb-09 02:31N 54°24' E 018°43'0 0.0
2016-Feb-09 01:31N 54°24' E 018°43'0 0.0
2016-Feb-09 00:31N 54°24' E 018°43'0 0.0
2016-Feb-08 23:31N 54°24' E 018°43'0 0.0
2016-Feb-08 22:31N 54°24' E 018°43'0 0.0
2016-Feb-08 21:31N 54°24' E 018°43'0 0.0
2016-Feb-08 20:31N 54°24' E 018°43'0 0.0
2016-Feb-08 19:31N 54°24' E 018°43'0 0.0
2016-Feb-08 18:31N 54°24' E 018°43'0 0.0
2016-Feb-08 17:31N 54°24' E 018°43'0 0.0
2016-Feb-08 16:31N 54°24' E 018°43'0 0.0
2016-Feb-08 15:31N 54°24' E 018°43'0 0.0
2016-Feb-08 14:31N 54°24' E 018°43'0 0.0
2016-Feb-08 13:31N 54°24' E 018°43'0 0.0
2016-Feb-08 12:31N 54°24' E 018°43'0 0.0
2016-Feb-08 11:31N 54°24' E 018°43'0 0.0
2016-Feb-08 10:31N 54°24' E 018°43'0 0.0
2016-Feb-08 09:25N 54°24' E 018°43'0 0.0
2016-Feb-08 08:31N 54°24' E 018°43'0 0.0
2016-Feb-08 07:31N 54°24' E 018°43'0 0.0
2016-Feb-08 06:31N 54°24' E 018°43'0 0.0
2016-Feb-08 05:31N 54°24' E 018°43'0 0.0
2016-Feb-08 04:31N 54°24' E 018°43'0 0.0
2016-Feb-08 03:31N 54°24' E 018°43'0 0.0
2016-Feb-08 02:31N 54°24' E 018°43'0 0.0
2016-Feb-08 01:31N 54°24' E 018°43'0 0.0
2016-Feb-08 00:31N 54°24' E 018°43'0 0.0
2016-Feb-07 23:31N 54°24' E 018°43'0 0.0
2016-Feb-07 22:31N 54°24' E 018°43'0 0.0
2016-Feb-07 21:31N 54°24' E 018°43'0 0.4
2016-Feb-07 20:33N 54°24' E 018°44'6 5.9
2016-Feb-07 19:33N 54°26' E 018°53'6 6.0
2016-Feb-07 18:33N 54°31' E 018°59'1110.7
2016-Feb-07 17:33N 54°41' E 019°02'1212.3
2016-Feb-07 16:34N 54°53' E 018°58'1212.4
2016-Feb-07 15:33N 55°05' E 019°04'1312.6
2016-Feb-07 14:33N 55°18' E 019°08'1712.7
2016-Feb-07 13:14N 55°34' E 019°13'912.7
2016-Feb-07 12:33N 55°43' E 019°15'23 9.1
2016-Feb-07 10:00N 56°06' E 019°18'15312.8 200 / 251004.4 5.4 1.0 5.5 4.3 3.5
2016-Feb-06 22:00N 58°30' E 020°54'10011.3 230 / 401005.4 0.3 1.5 5.0
2016-Feb-06 13:11N 59°37' E 023°18'812.7
2016-Feb-06 12:33N 59°40' E 023°33'1312.6
2016-Feb-06 11:33N 59°43' E 023°57'6812.5
2016-Feb-06 06:05N 59°58' E 026°10'712.6
2016-Feb-06 05:33N 59°60' E 026°23'1212.3
2016-Feb-06 04:33N 60°01' E 026°47'1211.9
2016-Feb-06 03:33N 60°02' E 027°11'1312.5
2016-Feb-06 02:33N 60°08' E 027°33'1111.4
2016-Feb-06 01:33N 60°11' E 027°55'1212.3
2016-Feb-06 00:33N 60°07' E 028°19'1110.7
2016-Feb-05 23:33N 60°01' E 028°37'9 9.2
2016-Feb-05 22:33N 59°53' E 028°30'9 9.5
2016-Feb-05 21:33N 59°44' E 028°25'1 1.0
2016-Feb-05 20:23N 59°42' E 028°26'0 0.0
2016-Feb-05 19:23N 59°42' E 028°26'0 0.0
2016-Feb-05 18:26N 59°42' E 028°26'0 0.0
2016-Feb-05 17:26N 59°42' E 028°26'0 0.0
2016-Feb-05 16:26N 59°42' E 028°26'0 0.0
2016-Feb-05 15:23N 59°42' E 028°26'0 0.0
2016-Feb-05 14:26N 59°42' E 028°26'0 0.0
2016-Feb-05 13:29N 59°42' E 028°26'0 0.0
2016-Feb-05 12:29N 59°42' E 028°26'0 0.0
2016-Feb-05 11:29N 59°42' E 028°26'0 0.0
2016-Feb-05 10:29N 59°42' E 028°26'0 0.0
2016-Feb-05 09:29N 59°42' E 028°26'0 0.0
2016-Feb-05 08:32N 59°42' E 028°26'0 0.0
2016-Feb-05 07:32N 59°42' E 028°26'0 0.0
2016-Feb-05 06:29N 59°42' E 028°26'0 0.0
2016-Feb-05 05:32N 59°42' E 028°26'0 0.0
2016-Feb-05 04:32N 59°42' E 028°26'0 0.0
2016-Feb-05 03:32N 59°42' E 028°26'0 0.0
2016-Feb-05 02:32N 59°42' E 028°26'0 0.0
2016-Feb-05 01:31N 59°42' E 028°26'0 0.0
2016-Feb-05 00:31N 59°42' E 028°26'0 0.0
2016-Feb-04 23:31N 59°42' E 028°26'0 0.0
2016-Feb-04 22:31N 59°42' E 028°26'0 0.0
2016-Feb-04 21:31N 59°42' E 028°26'0 0.0
2016-Feb-04 20:31N 59°42' E 028°26'0 0.0
2016-Feb-04 19:22N 59°42' E 028°26'0 0.0
2016-Feb-04 18:22N 59°42' E 028°26'0 0.0
2016-Feb-04 17:25N 59°42' E 028°26'0 0.0
2016-Feb-04 16:25N 59°42' E 028°26'0 0.6
2016-Feb-04 15:33N 59°42' E 028°25'4 4.3
2016-Feb-04 14:33N 59°46' E 028°24'1 1.0
2016-Feb-04 13:33N 59°47' E 028°25'0 0.0
2016-Feb-04 12:33N 59°47' E 028°25'0 0.0
2016-Feb-04 11:33N 59°47' E 028°25'0 0.0
2016-Feb-04 10:33N 59°47' E 028°25'0 0.0
2016-Feb-04 09:33N 59°47' E 028°25'0 0.0
2016-Feb-04 08:33N 59°47' E 028°25'0 0.0
2016-Feb-04 07:33N 59°47' E 028°25'0 0.1
2016-Feb-04 06:33N 59°47' E 028°25'0 0.0
2016-Feb-04 05:24N 59°47' E 028°25'0 0.0
2016-Feb-04 04:24N 59°47' E 028°25'0 0.0
2016-Feb-04 03:24N 59°47' E 028°25'0 0.0
2016-Feb-04 02:27N 59°47' E 028°25'0 0.0
2016-Feb-04 01:27N 59°47' E 028°25'0 0.1
2016-Feb-04 00:27N 59°47' E 028°25'0 0.0
2016-Feb-03 23:24N 59°47' E 028°25'0 0.1
2016-Feb-03 22:27N 59°47' E 028°25'0 0.0
2016-Feb-03 21:30N 59°47' E 028°25'0 0.0
2016-Feb-03 20:30N 59°47' E 028°25'0 0.0
2016-Feb-03 19:30N 59°47' E 028°25'0 0.0
2016-Feb-03 18:30N 59°47' E 028°25'0 0.0
2016-Feb-03 17:30N 59°47' E 028°25'0 0.0
2016-Feb-03 16:33N 59°47' E 028°25'0 0.0
2016-Feb-03 15:33N 59°47' E 028°25'0 0.0
2016-Feb-03 14:33N 59°47' E 028°25'0 0.2
2016-Feb-03 13:33N 59°47' E 028°25'0 0.1
2016-Feb-03 12:33N 59°47' E 028°25'0 0.0
2016-Feb-03 11:33N 59°47' E 028°25'0 0.0
2016-Feb-03 10:33N 59°47' E 028°25'5 4.7
2016-Feb-03 09:34N 59°52' E 028°27'8 8.3
2016-Feb-03 08:33N 59°59' E 028°35'5 5.3
2016-Feb-03 07:33N 60°03' E 028°28'1212.1
2016-Feb-03 06:33N 60°08' E 028°06'1211.9
2016-Feb-03 05:33N 60°10' E 027°43'1212.5
2016-Feb-03 04:33N 60°03' E 027°21'1212.0
2016-Feb-03 03:34N 59°58' E 026°60'1212.2
2016-Feb-03 02:34N 59°59' E 026°36'5712.7
2016-Feb-02 22:03N 59°46' E 024°45'612.6
2016-Feb-02 21:33N 59°45' E 024°32'1812.6
2016-Feb-02 20:08N 59°40' E 023°59'1012.9
2016-Feb-02 19:24N 59°36' E 023°41'  
Track history (hours):
 
Tides and Currents Weather Stations Pressure Air Temp Water Temp Dewpoint Dewpoint Depression Visibility Wind Speed Wind Dir Waves Ship Positions

British Robin

Last reported at 2016-Feb-12 05:28 UTC. Time now 2016-Feb-12 05:44 UTC.
Position N 59°56' E 028°36'.

Length 251.5 m; beam 43.9 m; draft 15 m.

Type: Tanker. MMSI: 232156000.

Date/timePositionNaut miles runAvg speedWind from/ knotsBaromVisibWave heightAir tempDewpointWater temp
2016-Feb-12 05:28N 59°56' E 028°36'0 0.0
2016-Feb-12 04:31N 59°56' E 028°36'0 0.0
2016-Feb-12 03:31N 59°56' E 028°36'0 0.0
2016-Feb-12 02:31N 59°56' E 028°36'0 0.0
2016-Feb-12 01:31N 59°56' E 028°36'0 0.0
2016-Feb-12 00:31N 59°56' E 028°36'0 0.0
2016-Feb-11 23:31N 59°56' E 028°36'0 0.0
2016-Feb-11 22:31N 59°56' E 028°36'0 0.0
2016-Feb-11 21:31N 59°56' E 028°36'0 0.0
2016-Feb-11 20:31N 59°56' E 028°36'0 0.0
2016-Feb-11 19:31N 59°56' E 028°36'0 0.0
2016-Feb-11 18:31N 59°56' E 028°36'0 0.0
2016-Feb-11 17:31N 59°56' E 028°36'0 0.0
2016-Feb-11 16:22N 59°56' E 028°36'0 0.0
2016-Feb-11 15:22N 59°56' E 028°36'0 0.0
2016-Feb-11 14:10N 59°56' E 028°36'0 0.0
2016-Feb-11 13:34N 59°56' E 028°36'0 0.0
2016-Feb-11 12:34N 59°56' E 028°36'0 0.0
2016-Feb-11 11:24N 59°56' E 028°36'0 0.0
2016-Feb-11 10:24N 59°56' E 028°36'0 0.0
2016-Feb-11 09:27N 59°56' E 028°36'0 0.0
2016-Feb-11 08:27N 59°56' E 028°36'0 0.0
2016-Feb-11 07:27N 59°56' E 028°36'0 0.0
2016-Feb-11 06:27N 59°56' E 028°36'0 0.0
2016-Feb-11 05:33N 59°56' E 028°36'1 1.0
2016-Feb-11 04:33N 59°57' E 028°36'5 5.5
2016-Feb-11 03:33N 60°02' E 028°34'1111.0
2016-Feb-11 02:33N 60°07' E 028°14'1211.9
2016-Feb-11 01:33N 60°11' E 027°51'1211.9
2016-Feb-11 00:33N 60°06' E 027°29'1312.6
2016-Feb-10 23:29N 59°59' E 027°06'1111.7
2016-Feb-10 22:33N 59°59' E 026°45'1212.1
2016-Feb-10 21:33N 59°57' E 026°21'5012.4
2016-Feb-10 17:33N 59°46' E 024°44'1313.2
2016-Feb-10 16:33N 59°43' E 024°19'1313.2
2016-Feb-10 15:33N 59°39' E 023°54'1313.0
2016-Feb-10 14:33N 59°34' E 023°30'29811.5
2016-Feb-09 12:33N 55°10' E 019°13'1313.2
2016-Feb-09 11:33N 54°57' E 019°08'1313.1
2016-Feb-09 10:33N 54°44' E 019°04'1212.4
2016-Feb-09 09:33N 54°32' E 019°04'1111.0
2016-Feb-09 08:33N 54°25' E 018°49'3 3.4
2016-Feb-09 07:32N 54°24' E 018°43'0 0.0
2016-Feb-09 06:32N 54°24' E 018°43'0 0.0
2016-Feb-09 05:32N 54°24' E 018°43'0 0.0
2016-Feb-09 04:32N 54°24' E 018°43'0 0.0
2016-Feb-09 03:32N 54°24' E 018°43'0 0.0
2016-Feb-09 02:31N 54°24' E 018°43'0 0.0
2016-Feb-09 01:31N 54°24' E 018°43'0 0.0
2016-Feb-09 00:31N 54°24' E 018°43'0 0.0
2016-Feb-08 23:31N 54°24' E 018°43'0 0.0
2016-Feb-08 22:31N 54°24' E 018°43'0 0.0
2016-Feb-08 21:31N 54°24' E 018°43'0 0.0
2016-Feb-08 20:31N 54°24' E 018°43'0 0.0
2016-Feb-08 19:31N 54°24' E 018°43'0 0.0
2016-Feb-08 18:31N 54°24' E 018°43'0 0.0
2016-Feb-08 17:31N 54°24' E 018°43'0 0.0
2016-Feb-08 16:31N 54°24' E 018°43'0 0.0
2016-Feb-08 15:31N 54°24' E 018°43'0 0.0
2016-Feb-08 14:31N 54°24' E 018°43'0 0.0
2016-Feb-08 13:31N 54°24' E 018°43'0 0.0
2016-Feb-08 12:31N 54°24' E 018°43'0 0.0
2016-Feb-08 11:31N 54°24' E 018°43'0 0.0
2016-Feb-08 10:31N 54°24' E 018°43'0 0.0
2016-Feb-08 09:25N 54°24' E 018°43'0 0.0
2016-Feb-08 08:31N 54°24' E 018°43'0 0.0
2016-Feb-08 07:31N 54°24' E 018°43'0 0.0
2016-Feb-08 06:31N 54°24' E 018°43'0 0.0
2016-Feb-08 05:31N 54°24' E 018°43'0 0.0
2016-Feb-08 04:31N 54°24' E 018°43'0 0.0
2016-Feb-08 03:31N 54°24' E 018°43'0 0.0
2016-Feb-08 02:31N 54°24' E 018°43'0 0.0
2016-Feb-08 01:31N 54°24' E 018°43'0 0.0
2016-Feb-08 00:31N 54°24' E 018°43'0 0.0
2016-Feb-07 23:31N 54°24' E 018°43'0 0.0
2016-Feb-07 22:31N 54°24' E 018°43'0 0.0
2016-Feb-07 21:31N 54°24' E 018°43'0 0.4
2016-Feb-07 20:33N 54°24' E 018°44'6 5.9
2016-Feb-07 19:33N 54°26' E 018°53'6 6.0
2016-Feb-07 18:33N 54°31' E 018°59'1110.7
2016-Feb-07 17:33N 54°41' E 019°02'1212.3
2016-Feb-07 16:34N 54°53' E 018°58'1212.4
2016-Feb-07 15:33N 55°05' E 019°04'1312.6
2016-Feb-07 14:33N 55°18' E 019°08'1712.7
2016-Feb-07 13:14N 55°34' E 019°13'912.7
2016-Feb-07 12:33N 55°43' E 019°15'23 9.1
2016-Feb-07 10:00N 56°06' E 019°18'15312.8 200 / 251004.4 5.4 1.0 5.5 4.3 3.5
2016-Feb-06 22:00N 58°30' E 020°54'10011.3 230 / 401005.4 0.3 1.5 5.0
2016-Feb-06 13:11N 59°37' E 023°18'812.7
2016-Feb-06 12:33N 59°40' E 023°33'1312.6
2016-Feb-06 11:33N 59°43' E 023°57'6812.5
2016-Feb-06 06:05N 59°58' E 026°10'712.6
2016-Feb-06 05:33N 59°60' E 026°23'1212.3
2016-Feb-06 04:33N 60°01' E 026°47'1211.9
2016-Feb-06 03:33N 60°02' E 027°11'1312.5
2016-Feb-06 02:33N 60°08' E 027°33'1111.4
2016-Feb-06 01:33N 60°11' E 027°55'1212.3
2016-Feb-06 00:33N 60°07' E 028°19'1110.7
2016-Feb-05 23:33N 60°01' E 028°37'9 9.2
2016-Feb-05 22:33N 59°53' E 028°30'9 9.5
2016-Feb-05 21:33N 59°44' E 028°25'1 1.0
2016-Feb-05 20:23N 59°42' E 028°26'0 0.0
2016-Feb-05 19:23N 59°42' E 028°26'0 0.0
2016-Feb-05 18:26N 59°42' E 028°26'0 0.0
2016-Feb-05 17:26N 59°42' E 028°26'0 0.0
2016-Feb-05 16:26N 59°42' E 028°26'0 0.0
2016-Feb-05 15:23N 59°42' E 028°26'0 0.0
2016-Feb-05 14:26N 59°42' E 028°26'0 0.0
2016-Feb-05 13:29N 59°42' E 028°26'0 0.0
2016-Feb-05 12:29N 59°42' E 028°26'0 0.0
2016-Feb-05 11:29N 59°42' E 028°26'0 0.0
2016-Feb-05 10:29N 59°42' E 028°26'0 0.0
2016-Feb-05 09:29N 59°42' E 028°26'0 0.0
2016-Feb-05 08:32N 59°42' E 028°26'0 0.0
2016-Feb-05 07:32N 59°42' E 028°26'0 0.0
2016-Feb-05 06:29N 59°42' E 028°26'0 0.0
2016-Feb-05 05:32N 59°42' E 028°26'0 0.0
2016-Feb-05 04:32N 59°42' E 028°26'0 0.0
2016-Feb-05 03:32N 59°42' E 028°26'0 0.0
2016-Feb-05 02:32N 59°42' E 028°26'0 0.0
2016-Feb-05 01:31N 59°42' E 028°26'0 0.0
2016-Feb-05 00:31N 59°42' E 028°26'0 0.0
2016-Feb-04 23:31N 59°42' E 028°26'0 0.0
2016-Feb-04 22:31N 59°42' E 028°26'0 0.0
2016-Feb-04 21:31N 59°42' E 028°26'0 0.0
2016-Feb-04 20:31N 59°42' E 028°26'0 0.0
2016-Feb-04 19:22N 59°42' E 028°26'0 0.0
2016-Feb-04 18:22N 59°42' E 028°26'0 0.0
2016-Feb-04 17:25N 59°42' E 028°26'0 0.0
2016-Feb-04 16:25N 59°42' E 028°26'0 0.6
2016-Feb-04 15:33N 59°42' E 028°25'4 4.3
2016-Feb-04 14:33N 59°46' E 028°24'1 1.0
2016-Feb-04 13:33N 59°47' E 028°25'0 0.0
2016-Feb-04 12:33N 59°47' E 028°25'0 0.0
2016-Feb-04 11:33N 59°47' E 028°25'0 0.0
2016-Feb-04 10:33N 59°47' E 028°25'0 0.0
2016-Feb-04 09:33N 59°47' E 028°25'0 0.0
2016-Feb-04 08:33N 59°47' E 028°25'0 0.0
2016-Feb-04 07:33N 59°47' E 028°25'0 0.1
2016-Feb-04 06:33N 59°47' E 028°25'0 0.0
2016-Feb-04 05:24N 59°47' E 028°25'0 0.0
2016-Feb-04 04:24N 59°47' E 028°25'0 0.0
2016-Feb-04 03:24N 59°47' E 028°25'0 0.0
2016-Feb-04 02:27N 59°47' E 028°25'0 0.0
2016-Feb-04 01:27N 59°47' E 028°25'0 0.1
2016-Feb-04 00:27N 59°47' E 028°25'0 0.0
2016-Feb-03 23:24N 59°47' E 028°25'0 0.1
2016-Feb-03 22:27N 59°47' E 028°25'0 0.0
2016-Feb-03 21:30N 59°47' E 028°25'0 0.0
2016-Feb-03 20:30N 59°47' E 028°25'0 0.0
2016-Feb-03 19:30N 59°47' E 028°25'0 0.0
2016-Feb-03 18:30N 59°47' E 028°25'0 0.0
2016-Feb-03 17:30N 59°47' E 028°25'0 0.0
2016-Feb-03 16:33N 59°47' E 028°25'0 0.0
2016-Feb-03 15:33N 59°47' E 028°25'0 0.0
2016-Feb-03 14:33N 59°47' E 028°25'0 0.2
2016-Feb-03 13:33N 59°47' E 028°25'0 0.1
2016-Feb-03 12:33N 59°47' E 028°25'0 0.0
2016-Feb-03 11:33N 59°47' E 028°25'0 0.0
2016-Feb-03 10:33N 59°47' E 028°25'5 4.7
2016-Feb-03 09:34N 59°52' E 028°27'8 8.3
2016-Feb-03 08:33N 59°59' E 028°35'5 5.3
2016-Feb-03 07:33N 60°03' E 028°28'1212.1
2016-Feb-03 06:33N 60°08' E 028°06'1211.9
2016-Feb-03 05:33N 60°10' E 027°43'1212.5
2016-Feb-03 04:33N 60°03' E 027°21'1212.0
2016-Feb-03 03:34N 59°58' E 026°60'1212.2
2016-Feb-03 02:34N 59°59' E 026°36'5712.7
2016-Feb-02 22:03N 59°46' E 024°45'612.6
2016-Feb-02 21:33N 59°45' E 024°32'1812.6
2016-Feb-02 20:08N 59°40' E 023°59'1012.9
2016-Feb-02 19:24N 59°36' E 023°41'  

Dump ship's entire track history